createdAt,value
2023-03-16T00:01:42.141Z,3.03
2023-03-16T00:06:43.919Z,3.00
2023-03-16T00:11:45.584Z,2.95
2023-03-16T00:16:47.227Z,2.96
2023-03-16T00:21:50.216Z,2.90
2023-03-16T00:26:55.941Z,2.86
2023-03-16T00:31:58.231Z,2.74
2023-03-16T00:36:59.870Z,2.75
2023-03-16T00:42:03.113Z,2.67
2023-03-16T00:47:06.381Z,2.49
2023-03-16T00:52:09.040Z,2.50
2023-03-16T00:57:12.636Z,2.53
2023-03-16T01:02:16.085Z,2.54
2023-03-16T01:07:18.292Z,2.45
2023-03-16T01:12:20.033Z,2.43
2023-03-16T01:17:22.555Z,2.40
2023-03-16T01:22:24.663Z,2.46
2023-03-16T01:27:26.420Z,2.43
2023-03-16T01:32:28.199Z,2.47
2023-03-16T01:37:30.184Z,2.55
2023-03-16T01:42:49.341Z,2.53
2023-03-16T01:47:52.780Z,2.42
2023-03-16T01:52:55.014Z,2.46
2023-03-16T01:57:56.700Z,2.29
2023-03-16T02:03:04.361Z,2.43
2023-03-16T02:08:14.789Z,2.15
2023-03-16T02:13:16.805Z,2.22
2023-03-16T02:18:19.993Z,2.11
2023-03-16T02:23:25.155Z,2.00
2023-03-16T02:28:38.966Z,2.01
2023-03-16T02:33:44.001Z,1.92
2023-03-16T02:38:46.519Z,1.78
2023-03-16T02:44:27.777Z,1.73
2023-03-16T02:49:39.993Z,1.73
2023-03-16T02:54:41.665Z,1.78
2023-03-16T02:59:44.677Z,1.72
2023-03-16T03:04:46.351Z,1.67
2023-03-16T03:09:48.169Z,1.68
2023-03-16T03:14:49.865Z,1.60
2023-03-16T03:19:54.783Z,1.54
2023-03-16T03:24:56.899Z,1.56
2023-03-16T03:29:58.982Z,1.53
2023-03-16T03:35:02.201Z,1.40
2023-03-16T03:40:11.834Z,1.35
2023-03-16T03:45:15.472Z,1.34
2023-03-16T03:50:17.903Z,1.35
2023-03-16T03:55:31.037Z,1.29
2023-03-16T04:00:32.805Z,1.28
2023-03-16T04:05:34.707Z,1.20
2023-03-16T04:10:36.551Z,1.33
2023-03-16T04:15:38.815Z,1.28
2023-03-16T04:20:55.234Z,1.26
2023-03-16T04:25:59.404Z,1.16
2023-03-16T04:31:07.135Z,1.13
2023-03-16T04:36:14.313Z,1.10
2023-03-16T04:41:17.923Z,1.06
2023-03-16T04:46:29.568Z,1.05
2023-03-16T04:51:33.573Z,0.99
2023-03-16T04:56:42.233Z,0.96
2023-03-16T05:01:52.062Z,0.97
2023-03-16T05:06:54.151Z,0.90
2023-03-16T05:12:01.368Z,0.90
2023-03-16T05:17:04.968Z,0.87
2023-03-16T05:22:07.651Z,0.97
2023-03-16T05:27:11.263Z,0.98
2023-03-16T05:32:13.776Z,1.04
2023-03-16T05:37:16.238Z,1.02
2023-03-16T05:42:18.092Z,1.09
2023-03-16T05:47:28.803Z,1.05
2023-03-16T05:52:33.864Z,1.15
2023-03-16T05:57:40.272Z,1.25
2023-03-16T06:02:48.271Z,1.43
2023-03-16T06:07:51.435Z,1.55
2023-03-16T06:12:53.834Z,1.69
2023-03-16T06:17:56.728Z,1.88
2023-03-16T06:22:58.433Z,1.96
2023-03-16T06:28:00.293Z,2.18
2023-03-16T06:33:02.229Z,2.28
2023-03-16T06:38:04.458Z,2.43
2023-03-16T06:43:25.231Z,2.56
2023-03-16T06:48:27.618Z,2.75
2023-03-16T06:53:29.834Z,2.92
2023-03-16T06:58:33.823Z,3.09
2023-03-16T07:03:36.724Z,3.22
2023-03-16T07:08:59.024Z,3.39
2023-03-16T07:14:03.184Z,3.51
2023-03-16T07:19:07.918Z,3.75
2023-03-16T07:24:10.893Z,3.88
2023-03-16T07:29:14.378Z,4.15
2023-03-16T07:34:16.267Z,4.29
2023-03-16T07:39:23.753Z,4.40
2023-03-16T07:44:32.357Z,4.38
2023-03-16T07:49:34.100Z,4.55
2023-03-16T07:54:37.181Z,4.64
2023-03-16T07:59:41.658Z,4.72
2023-03-16T08:04:46.372Z,5.15
2023-03-16T08:09:49.857Z,5.23
2023-03-16T08:14:56.510Z,5.35
2023-03-16T08:20:10.559Z,5.46
2023-03-16T08:25:14.596Z,5.61
2023-03-16T08:30:27.205Z,5.51
2023-03-16T08:35:46.343Z,5.60
2023-03-16T08:40:50.777Z,5.80
2023-03-16T08:45:55.941Z,5.86
2023-03-16T08:51:05.909Z,5.96
2023-03-16T08:56:10.148Z,5.98
2023-03-16T09:01:13.980Z,6.10
2023-03-16T09:06:17.148Z,6.14
2023-03-16T09:11:19.944Z,6.24
2023-03-16T09:16:25.513Z,6.24
2023-03-16T09:21:27.326Z,6.42
2023-03-16T09:26:29.924Z,6.45
2023-03-16T09:31:31.647Z,6.76
2023-03-16T09:36:33.634Z,6.98
2023-03-16T09:42:10.199Z,6.88
2023-03-16T09:47:12.315Z,7.08
2023-03-16T09:52:21.148Z,6.98
2023-03-16T09:57:26.348Z,7.88
2023-03-16T10:02:46.753Z,8.40
2023-03-16T10:08:10.320Z,8.69
2023-03-16T10:13:30.829Z,8.81
2023-03-16T10:18:38.790Z,9.33
2023-03-16T10:23:42.065Z,9.04
2023-03-16T10:28:45.520Z,9.40
2023-03-16T10:33:50.554Z,9.33
2023-03-16T10:39:02.542Z,9.07
2023-03-16T10:44:12.197Z,9.29
2023-03-16T10:49:27.144Z,9.08
2023-03-16T10:54:33.781Z,9.66
2023-03-16T10:59:37.023Z,10.15
2023-03-16T11:04:38.707Z,9.68
2023-03-16T11:09:40.833Z,10.18
2023-03-16T11:14:45.586Z,10.11
2023-03-16T11:19:54.536Z,10.09
2023-03-16T11:25:06.466Z,10.51
2023-03-16T11:30:16.018Z,10.84
2023-03-16T11:35:19.448Z,11.02
2023-03-16T11:40:40.084Z,11.34
2023-03-16T11:45:49.895Z,11.16
2023-03-16T11:51:13.399Z,11.33
2023-03-16T11:56:33.763Z,11.85
2023-03-16T12:01:43.065Z,11.56
2023-03-16T12:07:05.447Z,11.40
2023-03-16T12:12:23.779Z,12.39
2023-03-16T12:17:30.463Z,12.09
2023-03-16T12:22:37.614Z,12.56
2023-03-16T12:27:41.329Z,12.01
2023-03-16T12:32:53.623Z,12.46
2023-03-16T12:38:07.777Z,12.41
2023-03-16T12:43:47.734Z,12.66
2023-03-16T12:48:54.415Z,12.94
2023-03-16T12:53:57.427Z,13.15
2023-03-16T12:59:01.583Z,12.02
2023-03-16T13:04:10.818Z,11.94
2023-03-16T13:09:16.761Z,12.68
2023-03-16T13:14:41.646Z,13.18
2023-03-16T13:19:46.552Z,13.49
2023-03-16T13:24:54.538Z,13.15
2023-03-16T13:29:58.980Z,13.36
2023-03-16T13:35:05.275Z,13.42
2023-03-16T13:40:29.998Z,11.63
2023-03-16T13:45:34.086Z,12.04
2023-03-16T13:50:36.417Z,12.76
2023-03-16T13:55:40.294Z,13.01
2023-03-16T14:00:43.929Z,12.25
2023-03-16T14:05:46.024Z,11.60
2023-03-16T14:10:48.515Z,11.52
2023-03-16T14:15:50.961Z,11.97
2023-03-16T14:20:54.434Z,12.00
2023-03-16T14:25:56.152Z,11.80
2023-03-16T14:31:11.847Z,11.24
2023-03-16T14:36:15.984Z,11.50
2023-03-16T14:41:28.314Z,10.97
2023-03-16T14:46:33.183Z,11.11
2023-03-16T14:51:37.709Z,10.74
2023-03-16T14:56:39.441Z,10.77
2023-03-16T15:01:41.196Z,11.31
2023-03-16T15:06:43.130Z,10.72
2023-03-16T15:11:44.800Z,10.79
2023-03-16T15:16:46.441Z,10.84
2023-03-16T15:21:48.048Z,11.04
2023-03-16T15:26:51.311Z,11.37
2023-03-16T15:31:54.534Z,11.43
2023-03-16T15:36:56.556Z,11.17
2023-03-16T15:41:58.199Z,11.04
2023-03-16T15:47:00.706Z,10.97
2023-03-16T15:52:02.408Z,11.01
2023-03-16T15:57:05.788Z,10.68
2023-03-16T16:02:28.068Z,10.29
2023-03-16T16:07:29.771Z,10.28
2023-03-16T16:12:32.546Z,9.89
2023-03-16T16:17:50.602Z,9.53
2023-03-16T16:23:00.064Z,9.39
2023-03-16T16:28:01.865Z,9.15
2023-03-16T16:33:03.706Z,8.95
2023-03-16T16:38:05.369Z,8.71
2023-03-16T16:43:07.306Z,8.64
2023-03-16T16:48:27.032Z,8.35
2023-03-16T16:53:29.104Z,8.34
2023-03-16T16:58:30.979Z,8.20
2023-03-16T17:03:33.995Z,8.14
2023-03-16T17:08:36.520Z,7.95
2023-03-16T17:13:40.519Z,7.86
2023-03-16T17:18:42.699Z,7.61
2023-03-16T17:23:44.666Z,7.34
2023-03-16T17:28:59.250Z,7.14
2023-03-16T17:34:02.445Z,6.96
2023-03-16T17:39:09.806Z,6.62
2023-03-16T17:44:15.176Z,6.50
2023-03-16T17:49:18.315Z,6.35
2023-03-16T17:54:19.974Z,6.13
2023-03-16T17:59:22.976Z,5.88
2023-03-16T18:04:26.394Z,5.89
2023-03-16T18:09:28.741Z,5.79
2023-03-16T18:14:35.749Z,5.62
2023-03-16T18:19:37.717Z,5.52
2023-03-16T18:24:40.072Z,5.30
2023-03-16T18:29:46.864Z,5.20
2023-03-16T18:34:49.312Z,5.05
2023-03-16T18:39:52.771Z,4.96
2023-03-16T18:44:54.862Z,4.85
2023-03-16T18:49:56.912Z,4.66
2023-03-16T18:54:58.688Z,4.52
2023-03-16T19:00:00.330Z,4.35
2023-03-16T19:05:04.436Z,4.24
2023-03-16T19:10:19.666Z,4.12
2023-03-16T19:15:31.914Z,4.06
2023-03-16T19:20:35.128Z,4.00
2023-03-16T19:25:39.720Z,3.94
2023-03-16T19:30:41.824Z,3.86
2023-03-16T19:35:51.424Z,3.77
2023-03-16T19:40:59.471Z,3.63
2023-03-16T19:46:01.147Z,3.56
2023-03-16T19:51:02.846Z,3.46
2023-03-16T19:56:05.248Z,3.35
2023-03-16T20:01:16.579Z,3.29
2023-03-16T20:06:21.788Z,3.15
2023-03-16T20:11:30.129Z,3.01
2023-03-16T20:16:34.454Z,2.95
2023-03-16T20:21:36.151Z,2.90
2023-03-16T20:26:37.928Z,2.71
2023-03-16T20:31:39.571Z,2.71
2023-03-16T20:36:41.652Z,2.50
2023-03-16T20:41:43.793Z,2.36
2023-03-16T20:46:46.939Z,2.18
2023-03-16T20:51:49.873Z,2.14
2023-03-16T20:56:51.545Z,2.06
2023-03-16T21:01:55.591Z,1.94
2023-03-16T21:06:57.678Z,1.73
2023-03-16T21:11:59.462Z,1.67
2023-03-16T21:17:01.201Z,1.71
2023-03-16T21:22:02.887Z,1.72
2023-03-16T21:27:04.584Z,1.66
2023-03-16T21:32:20.039Z,1.59
2023-03-16T21:37:24.205Z,1.52
2023-03-16T21:42:26.034Z,1.48
2023-03-16T21:47:29.213Z,1.46
2023-03-16T21:52:31.173Z,1.38
2023-03-16T21:57:32.954Z,1.29
2023-03-16T22:02:36.763Z,1.19
2023-03-16T22:07:38.400Z,1.08
2023-03-16T22:12:40.019Z,1.00
2023-03-16T22:17:41.748Z,0.91
2023-03-16T22:22:43.370Z,0.91
2023-03-16T22:27:45.613Z,0.92
2023-03-16T22:32:50.978Z,0.98
2023-03-16T22:37:54.950Z,0.97
2023-03-16T22:43:02.112Z,0.86
2023-03-16T22:48:19.461Z,0.74
2023-03-16T22:53:32.605Z,0.76
2023-03-16T22:58:53.443Z,0.58
2023-03-16T23:03:55.028Z,0.39
2023-03-16T23:08:56.845Z,0.21
2023-03-16T23:13:59.705Z,0.17
2023-03-16T23:19:01.675Z,0.11
2023-03-16T23:24:04.682Z,0.08
2023-03-16T23:29:06.985Z,-0.02
2023-03-16T23:34:20.062Z,-0.10
2023-03-16T23:39:21.800Z,-0.22
2023-03-16T23:44:26.439Z,-0.24
2023-03-16T23:49:33.354Z,-0.25
2023-03-16T23:54:35.079Z,-0.11
2023-03-16T23:59:36.870Z,-0.01
